Leyla Kalkavan — V7JG9 — position and weather

sailwx.info

Track history (hours):
 
Tides and Currents Weather Stations Pressure Air Temp Water Temp Dewpoint Dewpoint Depression Visibility Wind Speed Wind Dir Waves Ship Positions

Leyla Kalkavan

Last reported at 2017-Nov-24 00:32 UTC. Time now 2017-Nov-24 07:31 UTC.
Position N 36°25' E 013°39'.

Type: Tanker. MMSI: 538007390.

Date/timePositionNaut miles runAvg speedWind from/ knotsBaromVisibWave heightAir tempDewpointWater temp
2017-Nov-24 00:32N 36°25' E 013°39'112.8
2017-Nov-24 00:29N 36°25' E 013°40'612.8
2017-Nov-24 00:00N 36°23' E 013°47'612.8
2017-Nov-23 23:30N 36°21' E 013°55'612.7
2017-Nov-23 23:00N 36°19' E 014°02'612.5
2017-Nov-23 22:30N 36°17' E 014°10'612.7
2017-Nov-23 22:00N 36°16' E 014°17'612.6
2017-Nov-23 21:30N 36°14' E 014°25'612.5
2017-Nov-23 21:00N 36°12' E 014°32'612.1
2017-Nov-23 20:30N 36°12' E 014°39'  
2017-Nov-17 12:09N 40°54' E 028°48'410.6
2017-Nov-17 11:48N 40°55' E 028°53'6 3.8
2017-Nov-17 10:15N 40°59' E 028°59'  
2017-Nov-14 19:21N 44°30' E 037°35'411.1
2017-Nov-14 19:00N 44°32' E 037°39'5 9.7
2017-Nov-14 18:30N 44°36' E 037°42'1 2.0
2017-Nov-14 18:00N 44°37' E 037°43'0 0.2
2017-Nov-14 17:30N 44°37' E 037°43'0 0.2
2017-Nov-14 17:00N 44°37' E 037°43'0 0.1
2017-Nov-14 16:30N 44°37' E 037°43'0 0.7
2017-Nov-14 16:00N 44°37' E 037°44'2 4.6
2017-Nov-14 15:31N 44°34' E 037°44'0 0.2
2017-Nov-14 15:00N 44°34' E 037°44'0 0.3
2017-Nov-14 14:30N 44°34' E 037°44'0 0.4
2017-Nov-14 14:00N 44°34' E 037°44'0 0.3
2017-Nov-14 13:30N 44°34' E 037°44'0 0.2
2017-Nov-14 13:00N 44°34' E 037°44'0 0.5
2017-Nov-14 12:30N 44°34' E 037°44'0 0.8
2017-Nov-14 12:00N 44°34' E 037°43'0 0.4
2017-Nov-14 11:30N 44°34' E 037°43'0 0.4
2017-Nov-14 11:00N 44°34' E 037°43'0 0.1
2017-Nov-14 10:30N 44°34' E 037°43'0 0.1
2017-Nov-14 10:00N 44°34' E 037°43'0 0.1
2017-Nov-14 09:30N 44°34' E 037°43'0 0.1
2017-Nov-14 09:00N 44°34' E 037°43'0 0.1
2017-Nov-14 08:30N 44°34' E 037°43'0 0.3
2017-Nov-14 08:00N 44°34' E 037°42'0 0.4
2017-Nov-14 07:30N 44°34' E 037°42'1 2.8
2017-Nov-14 07:00N 44°34' E 037°40'5 9.6
2017-Nov-14 06:30N 44°32' E 037°34'1 1.4
2017-Nov-14 06:00N 44°32' E 037°33'0 0.5
2017-Nov-14 05:30N 44°32' E 037°34'0 0.4
2017-Nov-14 05:00N 44°32' E 037°34'0 0.4
2017-Nov-14 04:30N 44°32' E 037°34'0 0.3
2017-Nov-14 04:00N 44°32' E 037°34'0 0.4
2017-Nov-14 03:30N 44°32' E 037°35'0 0.6
2017-Nov-14 03:00N 44°32' E 037°35'0 0.5
2017-Nov-14 02:30N 44°32' E 037°35'0 0.3
2017-Nov-14 02:00N 44°31' E 037°35'1 1.6
2017-Nov-14 01:30N 44°32' E 037°36'4 7.5
2017-Nov-14 01:00N 44°36' E 037°38'  
Track history (hours):
 
Tides and Currents Weather Stations Pressure Air Temp Water Temp Dewpoint Dewpoint Depression Visibility Wind Speed Wind Dir Waves Ship Positions

Leyla Kalkavan

Last reported at 2017-Nov-24 00:32 UTC. Time now 2017-Nov-24 07:31 UTC.
Position N 36°25' E 013°39'.

Type: Tanker. MMSI: 538007390.

Date/timePositionNaut miles runAvg speedWind from/ knotsBaromVisibWave heightAir tempDewpointWater temp
2017-Nov-24 00:32N 36°25' E 013°39'112.8
2017-Nov-24 00:29N 36°25' E 013°40'612.8
2017-Nov-24 00:00N 36°23' E 013°47'612.8
2017-Nov-23 23:30N 36°21' E 013°55'612.7
2017-Nov-23 23:00N 36°19' E 014°02'612.5
2017-Nov-23 22:30N 36°17' E 014°10'612.7
2017-Nov-23 22:00N 36°16' E 014°17'612.6
2017-Nov-23 21:30N 36°14' E 014°25'612.5
2017-Nov-23 21:00N 36°12' E 014°32'612.1
2017-Nov-23 20:30N 36°12' E 014°39'  
2017-Nov-17 12:09N 40°54' E 028°48'410.6
2017-Nov-17 11:48N 40°55' E 028°53'6 3.8
2017-Nov-17 10:15N 40°59' E 028°59'  
2017-Nov-14 19:21N 44°30' E 037°35'411.1
2017-Nov-14 19:00N 44°32' E 037°39'5 9.7
2017-Nov-14 18:30N 44°36' E 037°42'1 2.0
2017-Nov-14 18:00N 44°37' E 037°43'0 0.2
2017-Nov-14 17:30N 44°37' E 037°43'0 0.2
2017-Nov-14 17:00N 44°37' E 037°43'0 0.1
2017-Nov-14 16:30N 44°37' E 037°43'0 0.7
2017-Nov-14 16:00N 44°37' E 037°44'2 4.6
2017-Nov-14 15:31N 44°34' E 037°44'0 0.2
2017-Nov-14 15:00N 44°34' E 037°44'0 0.3
2017-Nov-14 14:30N 44°34' E 037°44'0 0.4
2017-Nov-14 14:00N 44°34' E 037°44'0 0.3
2017-Nov-14 13:30N 44°34' E 037°44'0 0.2
2017-Nov-14 13:00N 44°34' E 037°44'0 0.5
2017-Nov-14 12:30N 44°34' E 037°44'0 0.8
2017-Nov-14 12:00N 44°34' E 037°43'0 0.4
2017-Nov-14 11:30N 44°34' E 037°43'0 0.4
2017-Nov-14 11:00N 44°34' E 037°43'0 0.1
2017-Nov-14 10:30N 44°34' E 037°43'0 0.1
2017-Nov-14 10:00N 44°34' E 037°43'0 0.1
2017-Nov-14 09:30N 44°34' E 037°43'0 0.1
2017-Nov-14 09:00N 44°34' E 037°43'0 0.1
2017-Nov-14 08:30N 44°34' E 037°43'0 0.3
2017-Nov-14 08:00N 44°34' E 037°42'0 0.4
2017-Nov-14 07:30N 44°34' E 037°42'1 2.8
2017-Nov-14 07:00N 44°34' E 037°40'5 9.6
2017-Nov-14 06:30N 44°32' E 037°34'1 1.4
2017-Nov-14 06:00N 44°32' E 037°33'0 0.5
2017-Nov-14 05:30N 44°32' E 037°34'0 0.4
2017-Nov-14 05:00N 44°32' E 037°34'0 0.4
2017-Nov-14 04:30N 44°32' E 037°34'0 0.3
2017-Nov-14 04:00N 44°32' E 037°34'0 0.4
2017-Nov-14 03:30N 44°32' E 037°35'0 0.6
2017-Nov-14 03:00N 44°32' E 037°35'0 0.5
2017-Nov-14 02:30N 44°32' E 037°35'0 0.3
2017-Nov-14 02:00N 44°31' E 037°35'1 1.6
2017-Nov-14 01:30N 44°32' E 037°36'4 7.5
2017-Nov-14 01:00N 44°36' E 037°38'  

Dump ship's entire track history